Terminal Aerodrome Forecast
Issued by NWS Paducah, KY

Home | Current Version | Previous Version | Graphics & Text | Print | Product List | Glossary On
Versions: 1 2 3 4 5 6 7 8 9 10 11 12 13 14 15 16
000
FTUS43 KPAH 311700
TAFPAH
TAF
KPAH 311720Z 3118/0118 18006KT P6SM SCT050 BKN120
     FM010000 12003KT P6SM SCT050 OVC100
     FM010900 17005KT P6SM SCT025 BKN050
     FM011500 18011G19KT 3SM -RA BR OVC020=

USA.gov is the U.S. government's official web portal to all federal, state and local government web resources and services.